sensor_id;sensor_type;location;lat;lon;timestamp;pressure;altitude;pressure_sealevel;temperature;humidity
10852;BME280;5479;52.046;6.314;2023-01-10T00:01:57;101044.84;;;4.43;100.00
10852;BME280;5479;52.046;6.314;2023-01-10T00:04:25;101040.56;;;4.41;100.00
10852;BME280;5479;52.046;6.314;2023-01-10T00:06:55;101044.16;;;4.37;100.00
10852;BME280;5479;52.046;6.314;2023-01-10T00:09:23;101066.16;;;4.31;100.00
10852;BME280;5479;52.046;6.314;2023-01-10T00:11:55;101065.81;;;4.43;100.00
10852;BME280;5479;52.046;6.314;2023-01-10T00:14:40;101076.41;;;4.40;100.00
10852;BME280;5479;52.046;6.314;2023-01-10T00:17:08;101078.75;;;4.49;100.00
10852;BME280;5479;52.046;6.314;2023-01-10T00:19:36;101084.81;;;4.51;100.00
10852;BME280;5479;52.046;6.314;2023-01-10T00:22:04;101087.34;;;4.54;100.00
10852;BME280;5479;52.046;6.314;2023-01-10T00:24:40;101093.38;;;4.56;100.00
10852;BME280;5479;52.046;6.314;2023-01-10T00:27:10;101095.00;;;4.60;100.00
10852;BME280;5479;52.046;6.314;2023-01-10T00:29:44;101101.97;;;4.61;100.00
10852;BME280;5479;52.046;6.314;2023-01-10T00:32:13;101107.84;;;4.69;100.00
10852;BME280;5479;52.046;6.314;2023-01-10T00:34:41;101117.25;;;4.76;100.00
10852;BME280;5479;52.046;6.314;2023-01-10T00:37:11;101119.50;;;4.88;100.00
10852;BME280;5479;52.046;6.314;2023-01-10T00:39:40;101120.31;;;4.91;100.00
10852;BME280;5479;52.046;6.314;2023-01-10T00:42:10;101130.53;;;5.00;100.00
10852;BME280;5479;52.046;6.314;2023-01-10T00:44:58;101132.84;;;5.09;100.00
10852;BME280;5479;52.046;6.314;2023-01-10T00:47:27;101139.59;;;5.17;100.00
10852;BME280;5479;52.046;6.314;2023-01-10T00:49:55;101138.53;;;5.23;100.00
10852;BME280;5479;52.046;6.314;2023-01-10T00:52:23;101137.47;;;5.28;100.00
10852;BME280;5479;52.046;6.314;2023-01-10T00:54:51;101149.72;;;5.29;100.00
10852;BME280;5479;52.046;6.314;2023-01-10T00:57:20;101146.25;;;5.27;100.00
10852;BME280;5479;52.046;6.314;2023-01-10T00:59:48;101148.66;;;5.35;100.00
10852;BME280;5479;52.046;6.314;2023-01-10T01:02:16;101161.56;;;5.41;100.00
10852;BME280;5479;52.046;6.314;2023-01-10T01:04:44;101149.50;;;5.35;100.00
10852;BME280;5479;52.046;6.314;2023-01-10T01:07:13;101165.16;;;5.38;100.00
10852;BME280;5479;52.046;6.314;2023-01-10T01:09:42;101166.13;;;5.36;100.00
10852;BME280;5479;52.046;6.314;2023-01-10T01:12:25;101168.28;;;5.23;100.00
10852;BME280;5479;52.046;6.314;2023-01-10T01:14:53;101172.94;;;5.14;100.00
10852;BME280;5479;52.046;6.314;2023-01-10T01:17:21;101179.38;;;5.04;100.00
10852;BME280;5479;52.046;6.314;2023-01-10T01:19:51;101173.69;;;4.89;100.00
10852;BME280;5479;52.046;6.314;2023-01-10T01:22:19;101186.28;;;4.78;100.00
10852;BME280;5479;52.046;6.314;2023-01-10T01:24:48;101182.09;;;4.73;100.00
10852;BME280;5479;52.046;6.314;2023-01-10T01:27:16;101187.34;;;4.71;100.00
10852;BME280;5479;52.046;6.314;2023-01-10T01:29:45;101196.81;;;4.77;100.00
10852;BME280;5479;52.046;6.314;2023-01-10T01:32:13;101202.34;;;4.68;100.00
10852;BME280;5479;52.046;6.314;2023-01-10T01:34:41;101200.31;;;4.77;100.00
10852;BME280;5479;52.046;6.314;2023-01-10T01:37:09;101202.84;;;4.80;100.00
10852;BME280;5479;52.046;6.314;2023-01-10T01:39:39;101211.44;;;4.85;100.00
10852;BME280;5479;52.046;6.314;2023-01-10T01:42:19;101214.88;;;4.87;100.00
10852;BME280;5479;52.046;6.314;2023-01-10T01:47:54;101221.56;;;4.98;100.00
10852;BME280;5479;52.046;6.314;2023-01-10T01:50:32;101223.34;;;4.97;100.00
10852;BME280;5479;52.046;6.314;2023-01-10T01:53:06;101226.63;;;5.04;100.00
10852;BME280;5479;52.046;6.314;2023-01-10T01:55:37;101232.81;;;5.03;100.00
10852;BME280;5479;52.046;6.314;2023-01-10T01:58:10;101233.06;;;4.94;100.00
10852;BME280;5479;52.046;6.314;2023-01-10T02:00:41;101234.81;;;4.95;100.00
10852;BME280;5479;52.046;6.314;2023-01-10T02:03:15;101242.47;;;5.01;100.00
10852;BME280;5479;52.046;6.314;2023-01-10T02:05:43;101244.28;;;4.99;100.00
10852;BME280;5479;52.046;6.314;2023-01-10T02:08:12;101250.44;;;4.98;100.00
10852;BME280;5479;52.046;6.314;2023-01-10T02:10:44;101246.28;;;4.91;100.00
10852;BME280;5479;52.046;6.314;2023-01-10T02:13:17;101246.41;;;4.86;100.00
10852;BME280;5479;52.046;6.314;2023-01-10T02:15:45;101242.88;;;4.87;100.00
10852;BME280;5479;52.046;6.314;2023-01-10T02:18:16;101254.22;;;4.87;100.00
10852;BME280;5479;52.046;6.314;2023-01-10T02:20:59;101247.28;;;4.86;100.00
10852;BME280;5479;52.046;6.314;2023-01-10T02:24:11;101253.41;;;4.85;100.00
10852;BME280;5479;52.046;6.314;2023-01-10T02:32:53;101262.53;;;4.72;100.00
10852;BME280;5479;52.046;6.314;2023-01-10T02:35:36;101267.88;;;4.69;100.00
10852;BME280;5479;52.046;6.314;2023-01-10T02:38:13;101264.34;;;4.70;100.00
10852;BME280;5479;52.046;6.314;2023-01-10T02:40:50;101267.06;;;4.67;100.00
10852;BME280;5479;52.046;6.314;2023-01-10T02:43:21;101273.19;;;4.66;100.00
10852;BME280;5479;52.046;6.314;2023-01-10T02:45:55;101281.06;;;4.66;100.00
10852;BME280;5479;52.046;6.314;2023-01-10T02:48:26;101282.91;;;4.63;100.00
10852;BME280;5479;52.046;6.314;2023-01-10T02:50:57;101284.34;;;4.74;100.00
10852;BME280;5479;52.046;6.314;2023-01-10T02:53:30;101285.69;;;4.89;100.00
10852;BME280;5479;52.046;6.314;2023-01-10T02:59:10;101287.94;;;5.01;100.00
10852;BME280;5479;52.046;6.314;2023-01-10T03:01:48;101284.28;;;5.07;100.00
10852;BME280;5479;52.046;6.314;2023-01-10T03:04:31;101291.28;;;5.08;100.00
10852;BME280;5479;52.046;6.314;2023-01-10T03:07:08;101295.53;;;5.12;100.00
10852;BME280;5479;52.046;6.314;2023-01-10T03:09:49;101300.78;;;5.12;100.00
10852;BME280;5479;52.046;6.314;2023-01-10T03:12:24;101292.72;;;5.18;100.00
10852;BME280;5479;52.046;6.314;2023-01-10T03:14:57;101304.59;;;5.31;100.00
10852;BME280;5479;52.046;6.314;2023-01-10T03:17:28;101302.75;;;5.33;100.00
10852;BME280;5479;52.046;6.314;2023-01-10T03:20:02;101304.44;;;5.35;100.00
10852;BME280;5479;52.046;6.314;2023-01-10T03:22:34;101293.22;;;5.30;100.00
10852;BME280;5479;52.046;6.314;2023-01-10T03:25:07;101306.41;;;5.29;100.00
10852;BME280;5479;52.046;6.314;2023-01-10T03:27:41;101315.00;;;5.34;100.00
10852;BME280;5479;52.046;6.314;2023-01-10T03:30:18;101316.81;;;5.32;100.00
10852;BME280;5479;52.046;6.314;2023-01-10T03:32:49;101323.91;;;5.28;100.00
10852;BME280;5479;52.046;6.314;2023-01-10T03:35:19;101321.22;;;5.30;100.00
10852;BME280;5479;52.046;6.314;2023-01-10T03:37:54;101324.78;;;5.29;100.00
10852;BME280;5479;52.046;6.314;2023-01-10T03:40:27;101336.00;;;5.34;100.00
10852;BME280;5479;52.046;6.314;2023-01-10T03:43:01;101342.88;;;5.38;100.00
10852;BME280;5479;52.046;6.314;2023-01-10T03:45:50;101335.84;;;5.40;100.00
10852;BME280;5479;52.046;6.314;2023-01-10T03:48:25;101351.50;;;5.43;100.00
10852;BME280;5479;52.046;6.314;2023-01-10T03:50:56;101351.69;;;5.37;100.00
10852;BME280;5479;52.046;6.314;2023-01-10T03:53:27;101358.69;;;5.36;100.00
10852;BME280;5479;52.046;6.314;2023-01-10T03:55:55;101356.13;;;5.35;100.00
10852;BME280;5479;52.046;6.314;2023-01-10T03:58:23;101357.81;;;5.37;100.00
10852;BME280;5479;52.046;6.314;2023-01-10T04:00:52;101367.53;;;5.34;100.00
10852;BME280;5479;52.046;6.314;2023-01-10T04:03:20;101370.97;;;5.36;100.00
10852;BME280;5479;52.046;6.314;2023-01-10T04:05:48;101363.81;;;5.41;100.00
10852;BME280;5479;52.046;6.314;2023-01-10T04:08:20;101356.94;;;5.37;100.00
10852;BME280;5479;52.046;6.314;2023-01-10T04:10:49;101362.44;;;5.28;100.00
10852;BME280;5479;52.046;6.314;2023-01-10T04:13:17;101366.16;;;5.21;100.00
10852;BME280;5479;52.046;6.314;2023-01-10T04:15:45;101369.84;;;5.14;100.00
10852;BME280;5479;52.046;6.314;2023-01-10T04:18:13;101371.81;;;5.06;100.00
10852;BME280;5479;52.046;6.314;2023-01-10T04:20:41;101372.81;;;5.02;100.00
10852;BME280;5479;52.046;6.314;2023-01-10T04:23:10;101377.34;;;4.97;100.00
10852;BME280;5479;52.046;6.314;2023-01-10T04:25:39;101379.91;;;4.98;100.00
10852;BME280;5479;52.046;6.314;2023-01-10T04:28:07;101380.91;;;4.94;100.00
10852;BME280;5479;52.046;6.314;2023-01-10T04:30:36;101384.56;;;4.88;100.00
10852;BME280;5479;52.046;6.314;2023-01-10T04:33:04;101385.78;;;4.75;100.00
10852;BME280;5479;52.046;6.314;2023-01-10T04:35:32;101383.69;;;4.88;100.00
10852;BME280;5479;52.046;6.314;2023-01-10T04:38:00;101387.38;;;4.81;100.00
10852;BME280;5479;52.046;6.314;2023-01-10T04:40:28;101384.69;;;4.82;100.00
10852;BME280;5479;52.046;6.314;2023-01-10T04:42:57;101391.78;;;4.79;100.00
10852;BME280;5479;52.046;6.314;2023-01-10T04:45:25;101390.34;;;4.67;100.00
10852;BME280;5479;52.046;6.314;2023-01-10T04:47:53;101402.81;;;4.59;100.00
10852;BME280;5479;52.046;6.314;2023-01-10T04:50:22;101392.66;;;4.46;100.00
10852;BME280;5479;52.046;6.314;2023-01-10T04:52:50;101403.03;;;4.50;100.00
10852;BME280;5479;52.046;6.314;2023-01-10T04:55:18;101410.22;;;4.42;100.00
10852;BME280;5479;52.046;6.314;2023-01-10T04:57:47;101412.91;;;4.39;100.00
10852;BME280;5479;52.046;6.314;2023-01-10T05:00:17;101415.53;;;4.39;100.00
10852;BME280;5479;52.046;6.314;2023-01-10T05:02:46;101420.56;;;4.48;100.00
10852;BME280;5479;52.046;6.314;2023-01-10T05:05:14;101425.94;;;4.42;100.00
10852;BME280;5479;52.046;6.314;2023-01-10T05:07:44;101423.44;;;4.38;100.00
10852;BME280;5479;52.046;6.314;2023-01-10T05:10:12;101431.25;;;4.41;100.00
10852;BME280;5479;52.046;6.314;2023-01-10T05:12:40;101438.13;;;4.46;100.00
10852;BME280;5479;52.046;6.314;2023-01-10T05:15:09;101434.63;;;4.44;100.00
10852;BME280;5479;52.046;6.314;2023-01-10T05:17:39;101446.84;;;4.47;100.00
10852;BME280;5479;52.046;6.314;2023-01-10T05:20:08;101449.34;;;4.51;100.00
10852;BME280;5479;52.046;6.314;2023-01-10T05:22:36;101458.09;;;4.52;100.00
10852;BME280;5479;52.046;6.314;2023-01-10T05:25:07;101444.72;;;4.61;100.00
10852;BME280;5479;52.046;6.314;2023-01-10T05:27:35;101445.53;;;4.64;100.00
10852;BME280;5479;52.046;6.314;2023-01-10T05:30:08;101454.22;;;4.66;100.00
10852;BME280;5479;52.046;6.314;2023-01-10T05:32:36;101469.13;;;4.64;100.00
10852;BME280;5479;52.046;6.314;2023-01-10T05:35:06;101457.91;;;4.59;100.00
10852;BME280;5479;52.046;6.314;2023-01-10T05:37:34;101462.16;;;4.63;100.00
10852;BME280;5479;52.046;6.314;2023-01-10T05:40:03;101469.41;;;4.52;100.00
10852;BME280;5479;52.046;6.314;2023-01-10T05:42:32;101473.13;;;4.44;100.00
10852;BME280;5479;52.046;6.314;2023-01-10T05:45:00;101478.25;;;4.48;100.00
10852;BME280;5479;52.046;6.314;2023-01-10T05:47:27;101472.88;;;4.54;100.00
10852;BME280;5479;52.046;6.314;2023-01-10T05:49:56;101473.78;;;4.53;100.00
10852;BME280;5479;52.046;6.314;2023-01-10T05:52:26;101479.09;;;4.50;100.00
10852;BME280;5479;52.046;6.314;2023-01-10T05:54:54;101480.69;;;4.56;100.00
10852;BME280;5479;52.046;6.314;2023-01-10T05:57:23;101490.56;;;4.46;100.00
10852;BME280;5479;52.046;6.314;2023-01-10T05:59:51;101494.19;;;4.39;100.00
10852;BME280;5479;52.046;6.314;2023-01-10T06:02:19;101513.28;;;4.46;100.00
10852;BME280;5479;52.046;6.314;2023-01-10T06:04:47;101508.00;;;4.47;100.00
10852;BME280;5479;52.046;6.314;2023-01-10T06:07:15;101514.28;;;4.40;100.00
10852;BME280;5479;52.046;6.314;2023-01-10T06:09:45;101516.84;;;4.43;100.00
10852;BME280;5479;52.046;6.314;2023-01-10T06:12:14;101518.22;;;4.59;100.00
10852;BME280;5479;52.046;6.314;2023-01-10T06:14:44;101516.28;;;4.67;100.00
10852;BME280;5479;52.046;6.314;2023-01-10T06:17:13;101510.97;;;4.70;100.00
10852;BME280;5479;52.046;6.314;2023-01-10T06:19:41;101519.16;;;4.57;100.00
10852;BME280;5479;52.046;6.314;2023-01-10T06:22:09;101530.41;;;4.60;100.00
10852;BME280;5479;52.046;6.314;2023-01-10T06:24:37;101525.09;;;4.63;100.00
10852;BME280;5479;52.046;6.314;2023-01-10T06:27:08;101527.53;;;4.71;100.00
10852;BME280;5479;52.046;6.314;2023-01-10T06:29:36;101534.31;;;4.81;100.00
10852;BME280;5479;52.046;6.314;2023-01-10T06:32:04;101533.47;;;4.79;100.00
10852;BME280;5479;52.046;6.314;2023-01-10T06:34:32;101531.88;;;4.73;100.00
10852;BME280;5479;52.046;6.314;2023-01-10T06:37:03;101548.53;;;4.71;100.00
10852;BME280;5479;52.046;6.314;2023-01-10T06:39:35;101550.28;;;4.72;100.00
10852;BME280;5479;52.046;6.314;2023-01-10T06:42:05;101550.13;;;4.78;100.00
10852;BME280;5479;52.046;6.314;2023-01-10T06:44:38;101548.22;;;4.84;100.00
10852;BME280;5479;52.046;6.314;2023-01-10T06:47:29;101555.88;;;4.94;100.00
10852;BME280;5479;52.046;6.314;2023-01-10T06:49:57;101563.69;;;4.95;100.00
10852;BME280;5479;52.046;6.314;2023-01-10T06:52:27;101581.19;;;4.96;100.00
10852;BME280;5479;52.046;6.314;2023-01-10T06:54:56;101583.88;;;4.95;100.00
10852;BME280;5479;52.046;6.314;2023-01-10T06:57:31;101577.69;;;4.97;100.00
10852;BME280;5479;52.046;6.314;2023-01-10T07:00:11;101573.94;;;5.06;100.00
10852;BME280;5479;52.046;6.314;2023-01-10T07:02:53;101585.44;;;5.02;100.00
10852;BME280;5479;52.046;6.314;2023-01-10T07:05:22;101580.25;;;4.99;100.00
10852;BME280;5479;52.046;6.314;2023-01-10T07:07:50;101593.50;;;4.93;100.00
10852;BME280;5479;52.046;6.314;2023-01-10T07:10:24;101602.44;;;4.85;100.00
10852;BME280;5479;52.046;6.314;2023-01-10T07:12:57;101592.69;;;4.91;100.00
10852;BME280;5479;52.046;6.314;2023-01-10T07:15:29;101595.50;;;4.83;100.00
10852;BME280;5479;52.046;6.314;2023-01-10T07:18:00;101580.72;;;4.79;100.00
10852;BME280;5479;52.046;6.314;2023-01-10T07:20:32;101593.13;;;4.72;100.00
10852;BME280;5479;52.046;6.314;2023-01-10T07:23:00;101597.38;;;4.78;100.00
10852;BME280;5479;52.046;6.314;2023-01-10T07:25:57;101600.63;;;4.87;100.00
10852;BME280;5479;52.046;6.314;2023-01-10T07:28:35;101598.75;;;4.93;100.00
10852;BME280;5479;52.046;6.314;2023-01-10T07:31:08;101609.00;;;5.03;100.00
10852;BME280;5479;52.046;6.314;2023-01-10T07:33:44;101613.25;;;5.09;100.00
10852;BME280;5479;52.046;6.314;2023-01-10T07:36:12;101614.09;;;5.11;100.00
10852;BME280;5479;52.046;6.314;2023-01-10T07:38:41;101621.00;;;5.15;100.00
10852;BME280;5479;52.046;6.314;2023-01-10T07:41:19;101628.25;;;5.04;100.00
10852;BME280;5479;52.046;6.314;2023-01-10T07:44:02;101629.06;;;5.06;100.00
10852;BME280;5479;52.046;6.314;2023-01-10T07:46:33;101640.38;;;5.09;100.00
10852;BME280;5479;52.046;6.314;2023-01-10T07:49:05;101642.06;;;5.12;100.00
10852;BME280;5479;52.046;6.314;2023-01-10T07:51:35;101640.13;;;5.20;100.00
10852;BME280;5479;52.046;6.314;2023-01-10T07:54:24;101646.19;;;5.22;100.00
10852;BME280;5479;52.046;6.314;2023-01-10T07:56:57;101649.84;;;5.16;100.00
10852;BME280;5479;52.046;6.314;2023-01-10T07:59:30;101653.13;;;5.26;100.00
10852;BME280;5479;52.046;6.314;2023-01-10T08:02:00;101646.13;;;5.25;100.00
10852;BME280;5479;52.046;6.314;2023-01-10T08:04:34;101645.13;;;5.30;100.00
10852;BME280;5479;52.046;6.314;2023-01-10T08:07:04;101660.88;;;5.30;100.00
10852;BME280;5479;52.046;6.314;2023-01-10T08:09:35;101656.56;;;5.28;100.00
10852;BME280;5479;52.046;6.314;2023-01-10T08:12:03;101660.00;;;5.30;100.00
10852;BME280;5479;52.046;6.314;2023-01-10T08:14:33;101661.69;;;5.32;100.00
10852;BME280;5479;52.046;6.314;2023-01-10T08:17:06;101665.19;;;5.33;100.00
10852;BME280;5479;52.046;6.314;2023-01-10T08:19:37;101675.69;;;5.34;100.00
10852;BME280;5479;52.046;6.314;2023-01-10T08:22:06;101676.56;;;5.33;100.00
10852;BME280;5479;52.046;6.314;2023-01-10T08:24:43;101671.25;;;5.36;100.00
10852;BME280;5479;52.046;6.314;2023-01-10T08:27:31;101666.72;;;5.41;100.00
10852;BME280;5479;52.046;6.314;2023-01-10T08:30:09;101672.03;;;5.40;100.00
10852;BME280;5479;52.046;6.314;2023-01-10T08:32:55;101677.44;;;5.34;100.00
10852;BME280;5479;52.046;6.314;2023-01-10T08:35:24;101676.69;;;5.29;100.00
10852;BME280;5479;52.046;6.314;2023-01-10T08:37:52;101681.19;;;5.22;100.00
10852;BME280;5479;52.046;6.314;2023-01-10T08:40:23;101679.31;;;5.29;100.00
10852;BME280;5479;52.046;6.314;2023-01-10T08:43:02;101676.59;;;5.32;100.00
10852;BME280;5479;52.046;6.314;2023-01-10T08:45:48;101661.75;;;5.31;100.00
10852;BME280;5479;52.046;6.314;2023-01-10T08:48:25;101674.72;;;5.37;100.00
10852;BME280;5479;52.046;6.314;2023-01-10T08:50:54;101678.84;;;5.47;100.00
10852;BME280;5479;52.046;6.314;2023-01-10T08:53:22;101674.22;;;5.58;100.00
10852;BME280;5479;52.046;6.314;2023-01-10T08:55:56;101676.59;;;5.67;100.00
10852;BME280;5479;52.046;6.314;2023-01-10T08:58:25;101682.19;;;5.89;100.00
10852;BME280;5479;52.046;6.314;2023-01-10T09:00:54;101685.13;;;6.11;100.00
10852;BME280;5479;52.046;6.314;2023-01-10T09:03:27;101680.13;;;6.34;100.00
10852;BME280;5479;52.046;6.314;2023-01-10T09:05:58;101668.69;;;6.64;100.00
10852;BME280;5479;52.046;6.314;2023-01-10T09:08:26;101669.22;;;7.04;100.00
10852;BME280;5479;52.046;6.314;2023-01-10T09:10:57;101668.03;;;7.14;100.00
10852;BME280;5479;52.046;6.314;2023-01-10T09:13:25;101665.19;;;7.48;100.00
10852;BME280;5479;52.046;6.314;2023-01-10T09:15:58;101659.25;;;7.68;100.00
10852;BME280;5479;52.046;6.314;2023-01-10T09:18:28;101665.94;;;7.78;100.00
10852;BME280;5479;52.046;6.314;2023-01-10T09:20:57;101657.16;;;7.77;100.00
10852;BME280;5479;52.046;6.314;2023-01-10T09:23:28;101644.63;;;7.59;100.00
10852;BME280;5479;52.046;6.314;2023-01-10T09:25:56;101666.44;;;7.37;100.00
10852;BME280;5479;52.046;6.314;2023-01-10T09:28:24;101676.97;;;7.37;100.00
10852;BME280;5479;52.046;6.314;2023-01-10T09:30:52;101681.09;;;7.17;100.00
10852;BME280;5479;52.046;6.314;2023-01-10T09:33:20;101673.50;;;7.08;100.00
10852;BME280;5479;52.046;6.314;2023-01-10T09:35:51;101688.03;;;7.21;100.00
10852;BME280;5479;52.046;6.314;2023-01-10T09:38:21;101689.09;;;7.14;100.00
10852;BME280;5479;52.046;6.314;2023-01-10T09:41:00;101683.50;;;6.97;100.00
10852;BME280;5479;52.046;6.314;2023-01-10T09:43:44;101681.84;;;6.93;100.00
10852;BME280;5479;52.046;6.314;2023-01-10T09:46:22;101679.94;;;6.98;100.00
10852;BME280;5479;52.046;6.314;2023-01-10T09:48:59;101679.84;;;7.01;100.00
10852;BME280;5479;52.046;6.314;2023-01-10T09:51:35;101681.50;;;7.05;100.00
10852;BME280;5479;52.046;6.314;2023-01-10T09:54:16;101666.31;;;7.13;100.00
10852;BME280;5479;52.046;6.314;2023-01-10T09:56:46;101676.06;;;7.11;100.00
10852;BME280;5479;52.046;6.314;2023-01-10T09:59:16;101679.31;;;7.19;100.00
10852;BME280;5479;52.046;6.314;2023-01-10T10:01:47;101678.72;;;7.10;100.00
10852;BME280;5479;52.046;6.314;2023-01-10T10:04:22;101665.50;;;7.11;100.00
10852;BME280;5479;52.046;6.314;2023-01-10T10:06:54;101666.94;;;7.21;100.00
10852;BME280;5479;52.046;6.314;2023-01-10T10:09:25;101673.91;;;7.22;100.00
10852;BME280;5479;52.046;6.314;2023-01-10T10:12:09;101666.31;;;7.13;100.00
10852;BME280;5479;52.046;6.314;2023-01-10T10:15:05;101672.56;;;7.09;100.00
10852;BME280;5479;52.046;6.314;2023-01-10T10:17:48;101660.34;;;7.08;100.00
10852;BME280;5479;52.046;6.314;2023-01-10T10:20:30;101669.66;;;7.18;100.00
10852;BME280;5479;52.046;6.314;2023-01-10T10:23:11;101661.25;;;7.07;100.00
10852;BME280;5479;52.046;6.314;2023-01-10T10:25:54;101660.88;;;7.19;100.00
10852;BME280;5479;52.046;6.314;2023-01-10T10:28:49;101648.75;;;7.14;100.00
10852;BME280;5479;52.046;6.314;2023-01-10T10:31:43;101638.94;;;7.19;100.00
10852;BME280;5479;52.046;6.314;2023-01-10T10:34:22;101648.59;;;7.18;100.00
10852;BME280;5479;52.046;6.314;2023-01-10T10:36:53;101646.66;;;7.23;100.00
10852;BME280;5479;52.046;6.314;2023-01-10T10:39:35;101645.88;;;7.21;100.00
10852;BME280;5479;52.046;6.314;2023-01-10T10:42:09;101646.81;;;7.19;100.00
10852;BME280;5479;52.046;6.314;2023-01-10T10:44:42;101644.03;;;7.23;100.00
10852;BME280;5479;52.046;6.314;2023-01-10T10:47:14;101630.44;;;7.09;100.00
10852;BME280;5479;52.046;6.314;2023-01-10T10:49:46;101634.63;;;7.16;100.00
10852;BME280;5479;52.046;6.314;2023-01-10T10:52:22;101641.59;;;7.17;100.00
10852;BME280;5479;52.046;6.314;2023-01-10T10:54:57;101626.72;;;7.16;100.00
10852;BME280;5479;52.046;6.314;2023-01-10T10:57:27;101632.16;;;7.10;100.00
10852;BME280;5479;52.046;6.314;2023-01-10T10:59:58;101631.22;;;7.13;100.00
10852;BME280;5479;52.046;6.314;2023-01-10T11:02:28;101627.00;;;7.07;100.00
10852;BME280;5479;52.046;6.314;2023-01-10T11:05:02;101635.78;;;7.06;100.00
10852;BME280;5479;52.046;6.314;2023-01-10T11:07:33;101628.63;;;7.11;100.00
10852;BME280;5479;52.046;6.314;2023-01-10T11:10:15;101616.75;;;6.98;100.00
10852;BME280;5479;52.046;6.314;2023-01-10T11:13:04;101623.56;;;7.05;100.00
10852;BME280;5479;52.046;6.314;2023-01-10T11:15:38;101611.63;;;7.21;100.00
10852;BME280;5479;52.046;6.314;2023-01-10T11:18:13;101619.94;;;7.36;100.00
10852;BME280;5479;52.046;6.314;2023-01-10T11:20:48;101611.91;;;7.39;100.00
10852;BME280;5479;52.046;6.314;2023-01-10T11:23:37;101609.50;;;7.33;100.00
10852;BME280;5479;52.046;6.314;2023-01-10T11:26:19;101620.03;;;7.33;100.00
10852;BME280;5479;52.046;6.314;2023-01-10T11:28:50;101616.72;;;7.26;100.00
10852;BME280;5479;52.046;6.314;2023-01-10T11:31:26;101611.44;;;7.27;100.00
10852;BME280;5479;52.046;6.314;2023-01-10T11:33:57;101604.81;;;7.14;100.00
10852;BME280;5479;52.046;6.314;2023-01-10T11:36:25;101608.22;;;7.18;100.00
10852;BME280;5479;52.046;6.314;2023-01-10T11:38:59;101598.72;;;7.12;100.00
10852;BME280;5479;52.046;6.314;2023-01-10T11:41:29;101601.34;;;7.14;100.00
10852;BME280;5479;52.046;6.314;2023-01-10T11:44:17;101597.47;;;6.98;100.00
10852;BME280;5479;52.046;6.314;2023-01-10T11:46:48;101598.53;;;6.92;100.00
10852;BME280;5479;52.046;6.314;2023-01-10T11:49:28;101606.94;;;7.03;100.00
10852;BME280;5479;52.046;6.314;2023-01-10T11:52:01;101602.69;;;6.99;100.00
10852;BME280;5479;52.046;6.314;2023-01-10T11:54:31;101598.53;;;6.92;100.00
10852;BME280;5479;52.046;6.314;2023-01-10T11:57:02;101600.19;;;6.95;100.00
10852;BME280;5479;52.046;6.314;2023-01-10T11:59:33;101597.69;;;6.90;100.00
10852;BME280;5479;52.046;6.314;2023-01-10T12:02:09;101592.31;;;6.93;100.00
10852;BME280;5479;52.046;6.314;2023-01-10T12:04:40;101585.47;;;6.89;100.00
10852;BME280;5479;52.046;6.314;2023-01-10T12:07:10;101589.41;;;7.02;100.00
10852;BME280;5479;52.046;6.314;2023-01-10T12:09:40;101584.50;;;6.92;100.00
10852;BME280;5479;52.046;6.314;2023-01-10T12:12:16;101591.44;;;6.94;100.00
10852;BME280;5479;52.046;6.314;2023-01-10T12:14:45;101582.56;;;6.97;100.00
10852;BME280;5479;52.046;6.314;2023-01-10T12:17:20;101571.25;;;6.93;100.00
10852;BME280;5479;52.046;6.314;2023-01-10T12:19:51;101585.38;;;6.92;100.00
10852;BME280;5479;52.046;6.314;2023-01-10T12:22:25;101571.16;;;6.96;100.00
10852;BME280;5479;52.046;6.314;2023-01-10T12:24:57;101573.00;;;6.94;100.00
10852;BME280;5479;52.046;6.314;2023-01-10T12:27:28;101564.84;;;7.02;100.00
10852;BME280;5479;52.046;6.314;2023-01-10T12:30:03;101563.38;;;6.93;100.00
10852;BME280;5479;52.046;6.314;2023-01-10T12:32:37;101550.19;;;6.93;100.00
10852;BME280;5479;52.046;6.314;2023-01-10T12:35:14;101540.69;;;6.89;100.00
10852;BME280;5479;52.046;6.314;2023-01-10T12:37:46;101537.19;;;6.89;100.00
10852;BME280;5479;52.046;6.314;2023-01-10T12:40:20;101541.47;;;6.93;100.00
10852;BME280;5479;52.046;6.314;2023-01-10T12:42:56;101531.25;;;6.82;100.00
10852;BME280;5479;52.046;6.314;2023-01-10T12:45:46;101534.72;;;6.84;100.00
10852;BME280;5479;52.046;6.314;2023-01-10T12:48:22;101519.03;;;6.81;100.00
10852;BME280;5479;52.046;6.314;2023-01-10T12:50:55;101521.50;;;6.86;100.00
10852;BME280;5479;52.046;6.314;2023-01-10T12:53:30;101520.63;;;6.85;100.00
10852;BME280;5479;52.046;6.314;2023-01-10T12:56:01;101520.63;;;6.85;100.00
10852;BME280;5479;52.046;6.314;2023-01-10T12:58:40;101518.81;;;6.87;100.00
10852;BME280;5479;52.046;6.314;2023-01-10T13:01:13;101508.28;;;6.87;100.00
10852;BME280;5479;52.046;6.314;2023-01-10T13:03:43;101503.88;;;6.88;100.00
10852;BME280;5479;52.046;6.314;2023-01-10T13:06:20;101506.47;;;6.89;100.00
10852;BME280;5479;52.046;6.314;2023-01-10T13:08:50;101504.00;;;6.85;100.00
10852;BME280;5479;52.046;6.314;2023-01-10T13:11:21;101498.72;;;6.85;100.00
10852;BME280;5479;52.046;6.314;2023-01-10T13:13:56;101481.19;;;6.84;100.00
10852;BME280;5479;52.046;6.314;2023-01-10T13:16:31;101491.72;;;6.84;100.00
10852;BME280;5479;52.046;6.314;2023-01-10T13:19:04;101482.94;;;6.85;100.00
10852;BME280;5479;52.046;6.314;2023-01-10T13:22:19;101475.84;;;6.87;100.00
10852;BME280;5479;52.046;6.314;2023-01-10T13:24:57;101475.84;;;6.87;100.00
10852;BME280;5479;52.046;6.314;2023-01-10T13:27:32;101483.88;;;6.82;100.00
10852;BME280;5479;52.046;6.314;2023-01-10T13:30:03;101467.97;;;6.85;100.00
10852;BME280;5479;52.046;6.314;2023-01-10T13:32:33;101475.94;;;6.84;100.00
10852;BME280;5479;52.046;6.314;2023-01-10T13:35:13;101467.22;;;6.82;100.00
10852;BME280;5479;52.046;6.314;2023-01-10T13:37:44;101467.88;;;6.88;100.00
10852;BME280;5479;52.046;6.314;2023-01-10T13:40:20;101464.50;;;6.85;100.00
10852;BME280;5479;52.046;6.314;2023-01-10T13:43:24;101459.19;;;6.86;100.00